sensor_id;sensor_type;location;lat;lon;timestamp;temperature;humidity
27162;DHT22;54464;50.558;9.704;2023-01-26T00:00:50;-0.80;99.90
27162;DHT22;54464;50.558;9.704;2023-01-26T00:03:16;-0.80;99.90
27162;DHT22;54464;50.558;9.704;2023-01-26T00:05:42;-0.70;99.90
27162;DHT22;54464;50.558;9.704;2023-01-26T00:08:08;-0.70;99.90
27162;DHT22;54464;50.558;9.704;2023-01-26T00:10:35;-0.70;99.90
27162;DHT22;54464;50.558;9.704;2023-01-26T00:13:02;-0.70;99.90
27162;DHT22;54464;50.558;9.704;2023-01-26T00:15:28;-0.70;99.90
27162;DHT22;54464;50.558;9.704;2023-01-26T00:17:53;-0.70;99.90
27162;DHT22;54464;50.558;9.704;2023-01-26T00:20:19;-0.70;99.90
27162;DHT22;54464;50.558;9.704;2023-01-26T00:22:45;-0.60;99.90
27162;DHT22;54464;50.558;9.704;2023-01-26T00:25:10;-0.70;99.90
27162;DHT22;54464;50.558;9.704;2023-01-26T00:27:36;-0.70;99.90
27162;DHT22;54464;50.558;9.704;2023-01-26T00:30:02;-0.70;99.90
27162;DHT22;54464;50.558;9.704;2023-01-26T00:32:28;-0.70;99.90
27162;DHT22;54464;50.558;9.704;2023-01-26T00:34:53;-0.70;99.90
27162;DHT22;54464;50.558;9.704;2023-01-26T00:37:19;-0.70;99.90
27162;DHT22;54464;50.558;9.704;2023-01-26T00:39:44;-0.70;99.90
27162;DHT22;54464;50.558;9.704;2023-01-26T00:42:11;-0.70;99.90
27162;DHT22;54464;50.558;9.704;2023-01-26T00:44:39;-0.70;99.90
27162;DHT22;54464;50.558;9.704;2023-01-26T00:47:06;-0.70;99.90
27162;DHT22;54464;50.558;9.704;2023-01-26T00:49:33;-0.80;99.90
27162;DHT22;54464;50.558;9.704;2023-01-26T00:51:59;-0.60;99.90
27162;DHT22;54464;50.558;9.704;2023-01-26T00:54:25;-0.80;99.90
27162;DHT22;54464;50.558;9.704;2023-01-26T00:56:51;-0.80;99.90
27162;DHT22;54464;50.558;9.704;2023-01-26T00:59:17;-0.70;99.90
27162;DHT22;54464;50.558;9.704;2023-01-26T01:01:42;-0.70;99.90
27162;DHT22;54464;50.558;9.704;2023-01-26T01:04:09;-0.70;99.90
27162;DHT22;54464;50.558;9.704;2023-01-26T01:06:34;-0.70;99.90
27162;DHT22;54464;50.558;9.704;2023-01-26T01:09:00;-0.70;99.90
27162;DHT22;54464;50.558;9.704;2023-01-26T01:11:26;-0.70;99.90
27162;DHT22;54464;50.558;9.704;2023-01-26T01:13:51;-0.70;99.90
27162;DHT22;54464;50.558;9.704;2023-01-26T01:16:17;-0.70;99.90
27162;DHT22;54464;50.558;9.704;2023-01-26T01:18:43;-0.80;99.90
27162;DHT22;54464;50.558;9.704;2023-01-26T01:21:14;-0.80;99.90
27162;DHT22;54464;50.558;9.704;2023-01-26T01:23:41;-0.80;99.90
27162;DHT22;54464;50.558;9.704;2023-01-26T01:26:07;-0.80;99.90
27162;DHT22;54464;50.558;9.704;2023-01-26T01:28:34;-0.80;99.90
27162;DHT22;54464;50.558;9.704;2023-01-26T01:31:10;-0.70;99.90
27162;DHT22;54464;50.558;9.704;2023-01-26T01:33:36;-0.70;99.90
27162;DHT22;54464;50.558;9.704;2023-01-26T01:36:04;-0.80;99.90
27162;DHT22;54464;50.558;9.704;2023-01-26T01:38:30;-0.80;99.90
27162;DHT22;54464;50.558;9.704;2023-01-26T01:40:56;-0.70;99.90
27162;DHT22;54464;50.558;9.704;2023-01-26T01:43:23;-0.60;99.90
27162;DHT22;54464;50.558;9.704;2023-01-26T01:45:50;-0.70;99.90
27162;DHT22;54464;50.558;9.704;2023-01-26T01:48:33;-0.80;99.90
27162;DHT22;54464;50.558;9.704;2023-01-26T01:51:09;-0.90;99.90
27162;DHT22;54464;50.558;9.704;2023-01-26T01:53:39;-1.00;99.90
27162;DHT22;54464;50.558;9.704;2023-01-26T01:56:15;-0.90;99.90
27162;DHT22;54464;50.558;9.704;2023-01-26T01:58:44;-0.90;99.90
27162;DHT22;54464;50.558;9.704;2023-01-26T02:01:10;-0.90;99.90
27162;DHT22;54464;50.558;9.704;2023-01-26T02:03:36;-1.00;99.90
27162;DHT22;54464;50.558;9.704;2023-01-26T02:06:34;-1.00;99.90
27162;DHT22;54464;50.558;9.704;2023-01-26T02:09:00;-1.00;99.90
27162;DHT22;54464;50.558;9.704;2023-01-26T02:11:39;-0.90;99.90
27162;DHT22;54464;50.558;9.704;2023-01-26T02:14:07;-1.00;99.90
27162;DHT22;54464;50.558;9.704;2023-01-26T02:16:34;-0.90;99.90
27162;DHT22;54464;50.558;9.704;2023-01-26T02:18:59;-1.00;99.90
27162;DHT22;54464;50.558;9.704;2023-01-26T02:21:26;-1.10;99.90
27162;DHT22;54464;50.558;9.704;2023-01-26T02:24:16;-1.10;99.90
27162;DHT22;54464;50.558;9.704;2023-01-26T02:26:43;-1.10;99.90
27162;DHT22;54464;50.558;9.704;2023-01-26T02:29:09;-1.10;99.90
27162;DHT22;54464;50.558;9.704;2023-01-26T02:31:37;-1.00;99.90
27162;DHT22;54464;50.558;9.704;2023-01-26T02:34:02;-1.00;99.90
27162;DHT22;54464;50.558;9.704;2023-01-26T02:36:30;-1.00;99.90
27162;DHT22;54464;50.558;9.704;2023-01-26T02:41:47;-0.90;99.90
27162;DHT22;54464;50.558;9.704;2023-01-26T02:44:32;-0.90;99.90
27162;DHT22;54464;50.558;9.704;2023-01-26T02:46:58;-1.00;99.90
27162;DHT22;54464;50.558;9.704;2023-01-26T02:49:23;-1.00;99.90
27162;DHT22;54464;50.558;9.704;2023-01-26T02:52:07;-1.00;99.90
27162;DHT22;54464;50.558;9.704;2023-01-26T02:54:33;-1.10;99.90
27162;DHT22;54464;50.558;9.704;2023-01-26T02:57:17;-1.10;99.90
27162;DHT22;54464;50.558;9.704;2023-01-26T02:59:43;-1.00;99.90
27162;DHT22;54464;50.558;9.704;2023-01-26T03:02:09;-1.10;99.90
27162;DHT22;54464;50.558;9.704;2023-01-26T03:04:34;-1.20;99.90
27162;DHT22;54464;50.558;9.704;2023-01-26T03:07:00;-1.20;99.90
27162;DHT22;54464;50.558;9.704;2023-01-26T03:09:26;-1.20;99.90
27162;DHT22;54464;50.558;9.704;2023-01-26T03:11:51;-1.20;99.90
27162;DHT22;54464;50.558;9.704;2023-01-26T03:14:17;-1.20;99.90
27162;DHT22;54464;50.558;9.704;2023-01-26T03:16:43;-1.20;99.90
27162;DHT22;54464;50.558;9.704;2023-01-26T03:19:13;-1.20;99.90
27162;DHT22;54464;50.558;9.704;2023-01-26T03:21:58;-1.20;99.90
27162;DHT22;54464;50.558;9.704;2023-01-26T03:24:42;-1.20;99.90
27162;DHT22;54464;50.558;9.704;2023-01-26T03:27:33;-1.30;99.90
27162;DHT22;54464;50.558;9.704;2023-01-26T03:29:59;-1.30;99.90
27162;DHT22;54464;50.558;9.704;2023-01-26T03:32:25;-1.30;99.90
27162;DHT22;54464;50.558;9.704;2023-01-26T03:34:51;-1.30;99.90
27162;DHT22;54464;50.558;9.704;2023-01-26T03:37:17;-1.30;99.90
27162;DHT22;54464;50.558;9.704;2023-01-26T03:39:46;-1.30;99.90
27162;DHT22;54464;50.558;9.704;2023-01-26T03:42:30;-1.30;99.90
27162;DHT22;54464;50.558;9.704;2023-01-26T03:45:14;-1.30;99.90
27162;DHT22;54464;50.558;9.704;2023-01-26T03:48:10;-1.30;99.90
27162;DHT22;54464;50.558;9.704;2023-01-26T03:50:54;-1.30;99.90
27162;DHT22;54464;50.558;9.704;2023-01-26T03:53:39;-1.30;99.90
27162;DHT22;54464;50.558;9.704;2023-01-26T03:56:23;-1.30;99.90
27162;DHT22;54464;50.558;9.704;2023-01-26T03:59:00;-1.20;99.90
27162;DHT22;54464;50.558;9.704;2023-01-26T04:01:37;-1.20;99.90
27162;DHT22;54464;50.558;9.704;2023-01-26T04:04:05;-1.20;99.90
27162;DHT22;54464;50.558;9.704;2023-01-26T04:06:49;-1.20;99.90
27162;DHT22;54464;50.558;9.704;2023-01-26T04:09:35;-1.20;99.90
27162;DHT22;54464;50.558;9.704;2023-01-26T04:12:02;-1.20;99.90
27162;DHT22;54464;50.558;9.704;2023-01-26T04:14:28;-1.20;99.90
27162;DHT22;54464;50.558;9.704;2023-01-26T04:17:12;-1.20;99.90
27162;DHT22;54464;50.558;9.704;2023-01-26T04:19:56;-1.20;99.90
27162;DHT22;54464;50.558;9.704;2023-01-26T04:22:41;-1.20;99.90
27162;DHT22;54464;50.558;9.704;2023-01-26T04:25:12;-1.20;99.90
27162;DHT22;54464;50.558;9.704;2023-01-26T04:27:39;-1.30;99.90
27162;DHT22;54464;50.558;9.704;2023-01-26T04:30:06;-1.30;99.90
27162;DHT22;54464;50.558;9.704;2023-01-26T04:32:32;-1.30;99.90
27162;DHT22;54464;50.558;9.704;2023-01-26T04:34:58;-1.40;99.90
27162;DHT22;54464;50.558;9.704;2023-01-26T04:37:24;-1.40;99.90
27162;DHT22;54464;50.558;9.704;2023-01-26T04:39:49;-1.40;99.90
27162;DHT22;54464;50.558;9.704;2023-01-26T04:42:15;-1.40;99.90
27162;DHT22;54464;50.558;9.704;2023-01-26T04:44:40;-1.40;99.90
27162;DHT22;54464;50.558;9.704;2023-01-26T04:47:06;-1.40;99.90
27162;DHT22;54464;50.558;9.704;2023-01-26T04:49:32;-1.30;99.90
27162;DHT22;54464;50.558;9.704;2023-01-26T04:51:57;-1.30;99.90
27162;DHT22;54464;50.558;9.704;2023-01-26T04:54:23;-1.30;99.90
27162;DHT22;54464;50.558;9.704;2023-01-26T04:56:48;-1.30;99.90
27162;DHT22;54464;50.558;9.704;2023-01-26T04:59:16;-1.30;99.90
27162;DHT22;54464;50.558;9.704;2023-01-26T05:01:41;-1.40;99.90
27162;DHT22;54464;50.558;9.704;2023-01-26T05:04:09;-1.40;99.90
27162;DHT22;54464;50.558;9.704;2023-01-26T05:06:35;-1.50;99.90
27162;DHT22;54464;50.558;9.704;2023-01-26T05:09:02;-1.50;99.90
27162;DHT22;54464;50.558;9.704;2023-01-26T05:11:28;-1.40;99.90
27162;DHT22;54464;50.558;9.704;2023-01-26T05:13:54;-1.40;99.90
27162;DHT22;54464;50.558;9.704;2023-01-26T05:16:19;-1.50;99.90
27162;DHT22;54464;50.558;9.704;2023-01-26T05:18:45;-1.50;99.90
27162;DHT22;54464;50.558;9.704;2023-01-26T05:21:11;-1.40;99.90
27162;DHT22;54464;50.558;9.704;2023-01-26T05:23:37;-1.40;99.90
27162;DHT22;54464;50.558;9.704;2023-01-26T05:26:03;-1.40;99.90
27162;DHT22;54464;50.558;9.704;2023-01-26T05:28:29;-1.50;99.90
27162;DHT22;54464;50.558;9.704;2023-01-26T05:30:55;-1.50;99.90
27162;DHT22;54464;50.558;9.704;2023-01-26T05:33:21;-1.40;99.90
27162;DHT22;54464;50.558;9.704;2023-01-26T05:35:48;-1.40;99.90
27162;DHT22;54464;50.558;9.704;2023-01-26T05:38:14;-1.40;99.90
27162;DHT22;54464;50.558;9.704;2023-01-26T05:40:40;-1.40;99.90
27162;DHT22;54464;50.558;9.704;2023-01-26T05:43:06;-1.40;99.90
27162;DHT22;54464;50.558;9.704;2023-01-26T05:45:33;-1.40;99.90
27162;DHT22;54464;50.558;9.704;2023-01-26T05:47:59;-1.50;99.90
27162;DHT22;54464;50.558;9.704;2023-01-26T05:50:24;-1.50;99.90
27162;DHT22;54464;50.558;9.704;2023-01-26T05:52:50;-1.50;99.90
27162;DHT22;54464;50.558;9.704;2023-01-26T05:55:16;-1.50;99.90
27162;DHT22;54464;50.558;9.704;2023-01-26T05:57:42;-1.50;99.90
27162;DHT22;54464;50.558;9.704;2023-01-26T06:00:09;-1.50;99.90
27162;DHT22;54464;50.558;9.704;2023-01-26T06:02:35;-1.50;99.90
27162;DHT22;54464;50.558;9.704;2023-01-26T06:05:01;-1.40;99.90
27162;DHT22;54464;50.558;9.704;2023-01-26T06:07:26;-1.40;99.90
27162;DHT22;54464;50.558;9.704;2023-01-26T06:09:52;-1.50;99.90
27162;DHT22;54464;50.558;9.704;2023-01-26T06:12:19;-1.40;99.90
27162;DHT22;54464;50.558;9.704;2023-01-26T06:14:46;-1.40;99.90
27162;DHT22;54464;50.558;9.704;2023-01-26T06:17:13;-1.40;99.90
27162;DHT22;54464;50.558;9.704;2023-01-26T06:19:39;-1.40;99.90
27162;DHT22;54464;50.558;9.704;2023-01-26T06:22:09;-1.40;99.90
27162;DHT22;54464;50.558;9.704;2023-01-26T06:24:35;-1.40;99.90
27162;DHT22;54464;50.558;9.704;2023-01-26T06:27:01;-1.30;99.90
27162;DHT22;54464;50.558;9.704;2023-01-26T06:29:26;-1.30;99.90
27162;DHT22;54464;50.558;9.704;2023-01-26T06:31:52;-1.30;99.90
27162;DHT22;54464;50.558;9.704;2023-01-26T06:34:20;-1.30;99.90
27162;DHT22;54464;50.558;9.704;2023-01-26T06:36:46;-1.30;99.90
27162;DHT22;54464;50.558;9.704;2023-01-26T06:39:12;-1.40;99.90
27162;DHT22;54464;50.558;9.704;2023-01-26T06:41:38;-1.40;99.90
27162;DHT22;54464;50.558;9.704;2023-01-26T06:44:04;-1.40;99.90
27162;DHT22;54464;50.558;9.704;2023-01-26T06:46:30;-1.40;99.90
27162;DHT22;54464;50.558;9.704;2023-01-26T06:48:55;-1.40;99.90
27162;DHT22;54464;50.558;9.704;2023-01-26T06:54:05;-1.50;99.90
27162;DHT22;54464;50.558;9.704;2023-01-26T06:56:34;-1.50;99.90
27162;DHT22;54464;50.558;9.704;2023-01-26T06:59:00;-1.50;99.90
27162;DHT22;54464;50.558;9.704;2023-01-26T07:01:25;-1.50;99.90
27162;DHT22;54464;50.558;9.704;2023-01-26T07:03:53;-1.50;99.90
27162;DHT22;54464;50.558;9.704;2023-01-26T07:06:18;-1.50;99.90
27162;DHT22;54464;50.558;9.704;2023-01-26T07:08:44;-1.50;99.90
27162;DHT22;54464;50.558;9.704;2023-01-26T07:11:11;-1.50;99.90
27162;DHT22;54464;50.558;9.704;2023-01-26T07:13:37;-1.50;99.90
27162;DHT22;54464;50.558;9.704;2023-01-26T07:16:09;-1.60;99.90
27162;DHT22;54464;50.558;9.704;2023-01-26T07:18:35;-1.60;99.90
27162;DHT22;54464;50.558;9.704;2023-01-26T07:21:06;-1.60;99.90
27162;DHT22;54464;50.558;9.704;2023-01-26T07:23:33;-1.50;99.90
27162;DHT22;54464;50.558;9.704;2023-01-26T07:25:59;-1.50;99.90
27162;DHT22;54464;50.558;9.704;2023-01-26T07:28:25;-1.50;99.90
27162;DHT22;54464;50.558;9.704;2023-01-26T07:30:52;-1.50;99.90
27162;DHT22;54464;50.558;9.704;2023-01-26T07:33:18;-1.50;99.90
27162;DHT22;54464;50.558;9.704;2023-01-26T07:35:43;-1.50;99.90
27162;DHT22;54464;50.558;9.704;2023-01-26T07:38:09;-1.50;99.90
27162;DHT22;54464;50.558;9.704;2023-01-26T07:40:35;-1.50;99.90
27162;DHT22;54464;50.558;9.704;2023-01-26T07:43:00;-1.50;99.90
27162;DHT22;54464;50.558;9.704;2023-01-26T07:45:26;-1.50;99.90
27162;DHT22;54464;50.558;9.704;2023-01-26T07:47:56;-1.50;99.90
27162;DHT22;54464;50.558;9.704;2023-01-26T07:50:22;-1.50;99.90
27162;DHT22;54464;50.558;9.704;2023-01-26T07:52:50;-1.50;99.90
27162;DHT22;54464;50.558;9.704;2023-01-26T07:55:17;-1.60;99.90
27162;DHT22;54464;50.558;9.704;2023-01-26T07:57:47;-1.60;99.90
27162;DHT22;54464;50.558;9.704;2023-01-26T08:00:13;-1.50;99.90
27162;DHT22;54464;50.558;9.704;2023-01-26T08:02:39;-1.50;99.90
27162;DHT22;54464;50.558;9.704;2023-01-26T08:05:05;-1.60;99.90
27162;DHT22;54464;50.558;9.704;2023-01-26T08:07:31;-1.60;99.90
27162;DHT22;54464;50.558;9.704;2023-01-26T08:09:57;-1.60;99.90
27162;DHT22;54464;50.558;9.704;2023-01-26T08:12:23;-1.60;99.90
27162;DHT22;54464;50.558;9.704;2023-01-26T08:14:49;-1.50;99.90
27162;DHT22;54464;50.558;9.704;2023-01-26T08:17:15;-1.60;99.90
27162;DHT22;54464;50.558;9.704;2023-01-26T08:19:44;-1.50;99.90
27162;DHT22;54464;50.558;9.704;2023-01-26T08:22:10;-1.50;99.90
27162;DHT22;54464;50.558;9.704;2023-01-26T08:24:36;-1.50;99.90
27162;DHT22;54464;50.558;9.704;2023-01-26T08:27:02;-1.50;99.90
27162;DHT22;54464;50.558;9.704;2023-01-26T08:29:27;-1.50;99.90
27162;DHT22;54464;50.558;9.704;2023-01-26T08:31:53;-1.50;99.90
27162;DHT22;54464;50.558;9.704;2023-01-26T08:34:18;-1.40;99.90
27162;DHT22;54464;50.558;9.704;2023-01-26T08:36:47;-1.40;99.90
27162;DHT22;54464;50.558;9.704;2023-01-26T08:39:12;-1.40;99.90
27162;DHT22;54464;50.558;9.704;2023-01-26T08:41:38;-1.40;99.90
27162;DHT22;54464;50.558;9.704;2023-01-26T08:44:05;-1.40;99.90
27162;DHT22;54464;50.558;9.704;2023-01-26T08:46:31;-1.40;99.90
27162;DHT22;54464;50.558;9.704;2023-01-26T08:48:56;-1.40;99.90
27162;DHT22;54464;50.558;9.704;2023-01-26T08:51:22;-1.40;99.90
27162;DHT22;54464;50.558;9.704;2023-01-26T08:53:48;-1.40;99.90
27162;DHT22;54464;50.558;9.704;2023-01-26T12:13:37;-1.10;99.90
27162;DHT22;54464;50.558;9.704;2023-01-26T12:16:56;-1.20;99.90
27162;DHT22;54464;50.558;9.704;2023-01-26T12:19:36;-1.00;99.90
27162;DHT22;54464;50.558;9.704;2023-01-26T12:22:19;-1.00;99.90
27162;DHT22;54464;50.558;9.704;2023-01-26T12:24:52;-0.90;99.90
27162;DHT22;54464;50.558;9.704;2023-01-26T12:27:49;-0.80;99.90
27162;DHT22;54464;50.558;9.704;2023-01-26T12:30:59;-0.80;99.90
27162;DHT22;54464;50.558;9.704;2023-01-26T12:33:25;-0.70;99.90
27162;DHT22;54464;50.558;9.704;2023-01-26T12:53:00;-0.90;99.90
27162;DHT22;54464;50.558;9.704;2023-01-26T12:55:41;-0.90;99.90
27162;DHT22;54464;50.558;9.704;2023-01-26T12:58:14;-0.90;99.90
27162;DHT22;54464;50.558;9.704;2023-01-26T13:01:00;-0.90;99.90
27162;DHT22;54464;50.558;9.704;2023-01-26T13:03:36;-0.80;99.90
27162;DHT22;54464;50.558;9.704;2023-01-26T13:11:05;-0.70;99.90
27162;DHT22;54464;50.558;9.704;2023-01-26T13:13:56;-0.60;99.90
27162;DHT22;54464;50.558;9.704;2023-01-26T13:26:58;-0.60;99.90
27162;DHT22;54464;50.558;9.704;2023-01-26T13:31:54;-0.70;99.90
27162;DHT22;54464;50.558;9.704;2023-01-26T13:34:35;-0.70;99.90
27162;DHT22;54464;50.558;9.704;2023-01-26T13:37:15;-0.70;99.90
27162;DHT22;54464;50.558;9.704;2023-01-26T13:39:46;-0.70;99.90
27162;DHT22;54464;50.558;9.704;2023-01-26T13:42:40;-0.70;99.90
27162;DHT22;54464;50.558;9.704;2023-01-26T13:45:24;-0.70;99.90
27162;DHT22;54464;50.558;9.704;2023-01-26T13:47:55;-0.80;99.90
27162;DHT22;54464;50.558;9.704;2023-01-26T13:50:34;-0.80;99.90
27162;DHT22;54464;50.558;9.704;2023-01-26T13:53:34;-0.80;99.90
27162;DHT22;54464;50.558;9.704;2023-01-26T13:56:04;-0.90;99.90
27162;DHT22;54464;50.558;9.704;2023-01-26T13:58:31;-0.80;99.90
27162;DHT22;54464;50.558;9.704;2023-01-26T14:01:11;-0.90;99.90
27162;DHT22;54464;50.558;9.704;2023-01-26T14:03:37;-0.90;99.90
27162;DHT22;54464;50.558;9.704;2023-01-26T14:06:11;-1.00;99.90
27162;DHT22;54464;50.558;9.704;2023-01-26T14:08:38;-0.90;99.90
27162;DHT22;54464;50.558;9.704;2023-01-26T14:11:16;-1.00;99.90
27162;DHT22;54464;50.558;9.704;2023-01-26T14:13:43;-1.00;99.90
27162;DHT22;54464;50.558;9.704;2023-01-26T14:16:23;-0.80;99.90
27162;DHT22;54464;50.558;9.704;2023-01-26T14:18:49;-0.90;99.90
27162;DHT22;54464;50.558;9.704;2023-01-26T14:21:19;-0.90;99.90
27162;DHT22;54464;50.558;9.704;2023-01-26T14:23:45;-0.90;99.90
27162;DHT22;54464;50.558;9.704;2023-01-26T14:26:38;-0.90;99.90
27162;DHT22;54464;50.558;9.704;2023-01-26T14:29:26;-0.90;99.90
27162;DHT22;54464;50.558;9.704;2023-01-26T14:32:04;-1.00;99.90
27162;DHT22;54464;50.558;9.704;2023-01-26T14:34:51;-1.00;99.90
27162;DHT22;54464;50.558;9.704;2023-01-26T14:37:17;-1.00;99.90
27162;DHT22;54464;50.558;9.704;2023-01-26T14:39:44;-0.90;99.90
27162;DHT22;54464;50.558;9.704;2023-01-26T14:42:18;-0.90;99.90
27162;DHT22;54464;50.558;9.704;2023-01-26T14:44:45;-0.90;99.90
27162;DHT22;54464;50.558;9.704;2023-01-26T14:52:23;-1.00;99.90
27162;DHT22;54464;50.558;9.704;2023-01-26T14:54:51;-0.90;99.90
27162;DHT22;54464;50.558;9.704;2023-01-26T14:57:20;-0.90;99.90
27162;DHT22;54464;50.558;9.704;2023-01-26T14:59:50;-0.90;99.90
27162;DHT22;54464;50.558;9.704;2023-01-26T15:02:19;-0.90;99.90
27162;DHT22;54464;50.558;9.704;2023-01-26T15:04:53;-0.80;99.90
27162;DHT22;54464;50.558;9.704;2023-01-26T15:07:45;-0.80;99.90
27162;DHT22;54464;50.558;9.704;2023-01-26T15:10:33;-0.80;99.90
27162;DHT22;54464;50.558;9.704;2023-01-26T15:16:09;-0.80;99.90
27162;DHT22;54464;50.558;9.704;2023-01-26T15:18:36;-0.90;99.90
27162;DHT22;54464;50.558;9.704;2023-01-26T15:23:40;-0.90;99.90
27162;DHT22;54464;50.558;9.704;2023-01-26T15:26:22;-0.90;99.90
27162;DHT22;54464;50.558;9.704;2023-01-26T15:28:50;-1.00;99.90
27162;DHT22;54464;50.558;9.704;2023-01-26T15:34:00;-1.00;99.90
27162;DHT22;54464;50.558;9.704;2023-01-26T15:36:49;-1.10;99.90
27162;DHT22;54464;50.558;9.704;2023-01-26T15:39:16;-1.10;99.90
27162;DHT22;54464;50.558;9.704;2023-01-26T15:42:13;-1.00;99.90
27162;DHT22;54464;50.558;9.704;2023-01-26T15:44:39;-1.10;99.90
27162;DHT22;54464;50.558;9.704;2023-01-26T15:47:10;-1.10;99.90
27162;DHT22;54464;50.558;9.704;2023-01-26T15:49:36;-1.10;99.90
27162;DHT22;54464;50.558;9.704;2023-01-26T15:52:04;-1.20;99.90
27162;DHT22;54464;50.558;9.704;2023-01-26T15:54:33;-1.10;99.90
27162;DHT22;54464;50.558;9.704;2023-01-26T15:56:58;-1.10;99.90
27162;DHT22;54464;50.558;9.704;2023-01-26T15:59:24;-1.10;99.90
27162;DHT22;54464;50.558;9.704;2023-01-26T16:01:50;-1.10;99.90
27162;DHT22;54464;50.558;9.704;2023-01-26T16:04:15;-1.10;99.90
27162;DHT22;54464;50.558;9.704;2023-01-26T16:06:41;-1.10;99.90
27162;DHT22;54464;50.558;9.704;2023-01-26T16:09:07;-1.10;99.90
27162;DHT22;54464;50.558;9.704;2023-01-26T16:11:38;-1.10;99.90
27162;DHT22;54464;50.558;9.704;2023-01-26T16:14:11;-1.20;99.90
27162;DHT22;54464;50.558;9.704;2023-01-26T16:16:37;-1.20;99.90
27162;DHT22;54464;50.558;9.704;2023-01-26T16:19:03;-1.20;99.90
27162;DHT22;54464;50.558;9.704;2023-01-26T16:21:32;-1.20;99.90
27162;DHT22;54464;50.558;9.704;2023-01-26T16:23:59;-1.20;99.90
27162;DHT22;54464;50.558;9.704;2023-01-26T16:26:26;-1.20;99.90
27162;DHT22;54464;50.558;9.704;2023-01-26T16:28:52;-1.20;99.90
27162;DHT22;54464;50.558;9.704;2023-01-26T16:31:38;-1.20;99.90
27162;DHT22;54464;50.558;9.704;2023-01-26T16:34:05;-1.20;99.90
27162;DHT22;54464;50.558;9.704;2023-01-26T16:36:31;-1.20;99.90
27162;DHT22;54464;50.558;9.704;2023-01-26T16:38:59;-1.20;99.90
27162;DHT22;54464;50.558;9.704;2023-01-26T16:41:27;-1.10;99.90
27162;DHT22;54464;50.558;9.704;2023-01-26T16:43:58;-1.10;99.90
27162;DHT22;54464;50.558;9.704;2023-01-26T16:46:25;-1.10;99.90
27162;DHT22;54464;50.558;9.704;2023-01-26T16:48:51;-1.10;99.90
27162;DHT22;54464;50.558;9.704;2023-01-26T16:51:24;-1.10;99.90
27162;DHT22;54464;50.558;9.704;2023-01-26T16:53:50;-1.10;99.90
27162;DHT22;54464;50.558;9.704;2023-01-26T16:56:16;-1.10;99.90
27162;DHT22;54464;50.558;9.704;2023-01-26T16:58:42;-1.10;99.90
27162;DHT22;54464;50.558;9.704;2023-01-26T17:01:19;-1.00;99.90
27162;DHT22;54464;50.558;9.704;2023-01-26T17:03:45;-0.90;99.90
27162;DHT22;54464;50.558;9.704;2023-01-26T17:06:11;-0.90;99.90
27162;DHT22;54464;50.558;9.704;2023-01-26T17:08:37;-1.00;99.90
27162;DHT22;54464;50.558;9.704;2023-01-26T17:11:03;-1.00;99.90
27162;DHT22;54464;50.558;9.704;2023-01-26T17:13:29;-1.00;99.90
27162;DHT22;54464;50.558;9.704;2023-01-26T17:15:56;-1.00;99.90
27162;DHT22;54464;50.558;9.704;2023-01-26T17:18:22;-0.90;99.90
27162;DHT22;54464;50.558;9.704;2023-01-26T17:20:47;-1.00;99.90
27162;DHT22;54464;50.558;9.704;2023-01-26T17:23:13;-1.00;99.90
27162;DHT22;54464;50.558;9.704;2023-01-26T17:25:39;-1.00;99.90
27162;DHT22;54464;50.558;9.704;2023-01-26T17:28:04;-0.90;99.90
27162;DHT22;54464;50.558;9.704;2023-01-26T17:30:30;-0.90;99.90
27162;DHT22;54464;50.558;9.704;2023-01-26T17:32:56;-0.90;99.90
27162;DHT22;54464;50.558;9.704;2023-01-26T17:35:21;-0.90;99.90
27162;DHT22;54464;50.558;9.704;2023-01-26T17:37:47;-0.90;99.90
27162;DHT22;54464;50.558;9.704;2023-01-26T17:40:13;-0.90;99.90
27162;DHT22;54464;50.558;9.704;2023-01-26T17:42:38;-0.90;99.90
27162;DHT22;54464;50.558;9.704;2023-01-26T17:45:04;-1.00;99.90
27162;DHT22;54464;50.558;9.704;2023-01-26T17:47:31;-0.90;99.90
27162;DHT22;54464;50.558;9.704;2023-01-26T17:49:58;-0.90;99.90
27162;DHT22;54464;50.558;9.704;2023-01-26T17:52:24;-1.00;99.90
27162;DHT22;54464;50.558;9.704;2023-01-26T17:54:49;-1.00;99.90
27162;DHT22;54464;50.558;9.704;2023-01-26T17:57:15;-1.00;99.90
27162;DHT22;54464;50.558;9.704;2023-01-26T17:59:41;-0.90;99.90
27162;DHT22;54464;50.558;9.704;2023-01-26T18:02:08;-0.90;99.90
27162;DHT22;54464;50.558;9.704;2023-01-26T18:04:33;-0.90;99.90
27162;DHT22;54464;50.558;9.704;2023-01-26T18:06:59;-0.90;99.90
27162;DHT22;54464;50.558;9.704;2023-01-26T18:09:26;-0.90;99.90
27162;DHT22;54464;50.558;9.704;2023-01-26T18:11:51;-0.90;99.90
27162;DHT22;54464;50.558;9.704;2023-01-26T18:14:20;-0.90;99.90
27162;DHT22;54464;50.558;9.704;2023-01-26T18:16:47;-0.90;99.90
27162;DHT22;54464;50.558;9.704;2023-01-26T18:19:13;-0.90;99.90
27162;DHT22;54464;50.558;9.704;2023-01-26T18:21:38;-0.90;99.90
27162;DHT22;54464;50.558;9.704;2023-01-26T18:24:05;-0.90;99.90
27162;DHT22;54464;50.558;9.704;2023-01-26T18:26:33;-0.90;99.90
27162;DHT22;54464;50.558;9.704;2023-01-26T18:28:59;-0.90;99.90
27162;DHT22;54464;50.558;9.704;2023-01-26T18:31:28;-0.90;99.90
27162;DHT22;54464;50.558;9.704;2023-01-26T18:33:55;-0.80;99.90
27162;DHT22;54464;50.558;9.704;2023-01-26T18:36:21;-0.80;99.90
27162;DHT22;54464;50.558;9.704;2023-01-26T18:38:58;-0.80;99.90
27162;DHT22;54464;50.558;9.704;2023-01-26T18:41:25;-0.80;99.90
27162;DHT22;54464;50.558;9.704;2023-01-26T18:43:53;-0.80;99.90
27162;DHT22;54464;50.558;9.704;2023-01-26T18:46:20;-0.80;99.90
27162;DHT22;54464;50.558;9.704;2023-01-26T18:48:51;-0.80;99.90
27162;DHT22;54464;50.558;9.704;2023-01-26T18:51:17;-0.80;99.90
27162;DHT22;54464;50.558;9.704;2023-01-26T18:53:43;-0.80;99.90
27162;DHT22;54464;50.558;9.704;2023-01-26T18:56:12;-0.80;99.90
27162;DHT22;54464;50.558;9.704;2023-01-26T18:58:38;-0.80;99.90
27162;DHT22;54464;50.558;9.704;2023-01-26T19:01:06;-0.80;99.90
27162;DHT22;54464;50.558;9.704;2023-01-26T19:03:37;-0.80;99.90
27162;DHT22;54464;50.558;9.704;2023-01-26T19:06:07;-0.80;99.90
27162;DHT22;54464;50.558;9.704;2023-01-26T19:08:33;-0.80;99.90
27162;DHT22;54464;50.558;9.704;2023-01-26T19:11:17;-0.80;99.90
27162;DHT22;54464;50.558;9.704;2023-01-26T19:13:45;-0.70;99.90
27162;DHT22;54464;50.558;9.704;2023-01-26T19:16:11;-0.70;99.90
27162;DHT22;54464;50.558;9.704;2023-01-26T19:18:36;-0.70;99.90
27162;DHT22;54464;50.558;9.704;2023-01-26T19:21:03;-0.70;99.90
27162;DHT22;54464;50.558;9.704;2023-01-26T19:23:29;-0.70;99.90
27162;DHT22;54464;50.558;9.704;2023-01-26T19:25:55;-0.70;99.90
27162;DHT22;54464;50.558;9.704;2023-01-26T19:28:21;-0.70;99.90
27162;DHT22;54464;50.558;9.704;2023-01-26T19:30:47;-0.70;99.90
27162;DHT22;54464;50.558;9.704;2023-01-26T19:33:12;-0.70;99.90
27162;DHT22;54464;50.558;9.704;2023-01-26T19:35:52;-0.70;99.90
27162;DHT22;54464;50.558;9.704;2023-01-26T19:38:19;-0.70;99.90
27162;DHT22;54464;50.558;9.704;2023-01-26T19:40:46;-0.70;99.90
27162;DHT22;54464;50.558;9.704;2023-01-26T19:43:13;-0.70;99.90
27162;DHT22;54464;50.558;9.704;2023-01-26T19:45:39;-0.60;99.90
27162;DHT22;54464;50.558;9.704;2023-01-26T19:48:05;-0.60;99.90
27162;DHT22;54464;50.558;9.704;2023-01-26T19:50:32;-0.60;99.90
27162;DHT22;54464;50.558;9.704;2023-01-26T19:52:57;-0.60;99.90
27162;DHT22;54464;50.558;9.704;2023-01-26T19:55:23;-0.60;99.90